Time;durP1;ratioP1;P1;durP2;ratioP2;P2;SDS_P1;SDS_P2;PMS_P1;PMS_P2;Temp;Humidity;BMP_temperature;BMP_pressure;BME280_temperature;BME280_humidity;BME280_pressure;Samples;Min_cycle;Max_cycle;Signal;HPM_P1;HPM_P2
2021/04/13 00:00:07;;;;;;;2.85;0.90;;;;;;;;;;4953820;29;20039;-83
2021/04/13 00:02:39;;;;;;;3.47;1.20;;;;;;;;;;4936642;29;20051;-82
2021/04/13 00:05:10;;;;;;;6.22;0.98;;;;;;;;;;4953749;29;20114;-83
2021/04/13 00:07:36;;;;;;;5.55;0.80;;;;;;;;;;4952441;29;20087;-83
2021/04/13 00:10:07;;;;;;;5.75;1.00;;;;;;;;;;4952802;29;20227;-81
2021/04/13 00:12:33;;;;;;;4.95;0.80;;;;;;;;;;4936726;29;20064;-83
2021/04/13 00:15:07;;;;;;;5.38;1.70;;;;;;;;;;4953704;29;20066;-82
2021/04/13 00:17:33;;;;;;;7.13;1.20;;;;;;;;;;4952492;29;20055;-82
2021/04/13 00:20:15;;;;;;;5.93;0.90;;;;;;;;;;4953590;29;20044;-80
2021/04/13 00:22:41;;;;;;;4.53;0.90;;;;;;;;;;4952282;29;20047;-82
2021/04/13 00:25:07;;;;;;;9.43;1.90;;;;;;;;;;4952505;28;20043;-82
2021/04/13 00:27:33;;;;;;;6.07;1.20;;;;;;;;;;4939852;29;20569;-81
2021/04/13 00:30:08;;;;;;;5.80;1.40;;;;;;;;;;4956035;29;20089;-82
2021/04/13 00:32:36;;;;;;;2.85;0.80;;;;;;;;;;4955881;29;20130;-81
2021/04/13 00:35:19;;;;;;;8.35;1.30;;;;;;;;;;4956977;29;20046;-82
2021/04/13 00:37:45;;;;;;;3.67;1.00;;;;;;;;;;4942288;29;20051;-82
2021/04/13 00:40:25;;;;;;;9.05;1.00;;;;;;;;;;4956999;29;20086;-82
2021/04/13 00:42:52;;;;;;;3.85;0.80;;;;;;;;;;4955960;29;20542;-82
2021/04/13 00:45:19;;;;;;;3.70;0.90;;;;;;;;;;4956805;29;20039;-83
2021/04/13 00:47:45;;;;;;;3.03;0.90;;;;;;;;;;4939612;29;20043;-83
2021/04/13 00:50:12;;;;;;;3.03;0.90;;;;;;;;;;4955672;29;20065;-81
2021/04/13 00:52:39;;;;;;;6.68;0.82;;;;;;;;;;4955694;29;20043;-83
2021/04/13 00:55:08;;;;;;;1.42;0.50;;;;;;;;;;4939736;29;20390;-84
2021/04/13 00:57:35;;;;;;;4.28;0.93;;;;;;;;;;4955285;29;20035;-82
2021/04/13 01:00:02;;;;;;;6.18;2.58;;;;;;;;;;4955393;29;20043;-82
2021/04/13 01:02:28;;;;;;;3.58;0.80;;;;;;;;;;4939551;29;20047;-84
2021/04/13 01:04:57;;;;;;;3.67;1.10;;;;;;;;;;4955542;29;20538;-83
2021/04/13 01:07:40;;;;;;;5.35;0.90;;;;;;;;;;4955330;29;20089;-83
2021/04/13 01:10:10;;;;;;;6.70;1.00;;;;;;;;;;4956482;29;20047;-83
2021/04/13 01:12:37;;;;;;;8.18;1.67;;;;;;;;;;4955199;29;20041;-83
2021/04/13 01:15:04;;;;;;;4.65;0.80;;;;;;;;;;4956347;29;20078;-82
2021/04/13 01:17:30;;;;;;;5.80;0.85;;;;;;;;;;4955043;29;20043;-83
2021/04/13 01:19:59;;;;;;;5.43;1.00;;;;;;;;;;4955316;29;20114;-83
2021/04/13 01:22:30;;;;;;;8.15;1.25;;;;;;;;;;4955172;29;20039;-83
2021/04/13 01:25:04;;;;;;;2.92;1.17;;;;;;;;;;4956232;28;20073;-84
2021/04/13 01:27:30;;;;;;;7.68;1.20;;;;;;;;;;4954707;29;20193;-82
2021/04/13 01:29:59;;;;;;;3.85;0.77;;;;;;;;;;4956350;29;20121;-82
2021/04/13 01:32:26;;;;;;;3.13;0.85;;;;;;;;;;4923690;29;20083;-82
2021/04/13 01:35:03;;;;;;;3.95;0.90;;;;;;;;;;4923113;29;20035;-82
2021/04/13 01:37:45;;;;;;;3.47;0.95;;;;;;;;;;4939284;29;20050;-82
2021/04/13 01:40:18;;;;;;;6.57;1.05;;;;;;;;;;4925277;29;20066;-82
2021/04/13 01:42:44;;;;;;;4.00;1.00;;;;;;;;;;4939697;29;20039;-82
2021/04/13 01:45:14;;;;;;;4.97;0.90;;;;;;;;;;4938812;29;20521;-82
2021/04/13 01:47:40;;;;;;;4.43;0.90;;;;;;;;;;4907102;29;20048;-83
2021/04/13 01:50:08;;;;;;;4.72;0.80;;;;;;;;;;4955761;29;20043;-82
2021/04/13 01:52:37;;;;;;;4.63;0.90;;;;;;;;;;4938714;29;20506;-82
2021/04/13 01:55:08;;;;;;;5.13;1.13;;;;;;;;;;4938530;29;20046;-81
2021/04/13 01:57:37;;;;;;;3.45;1.00;;;;;;;;;;4938583;29;20122;-82
2021/04/13 02:00:11;;;;;;;6.38;1.45;;;;;;;;;;4938620;29;20498;-82
2021/04/13 02:02:38;;;;;;;5.85;0.85;;;;;;;;;;4938551;29;20043;-81
2021/04/13 02:05:07;;;;;;;8.77;2.55;;;;;;;;;;4922649;29;20050;-82
2021/04/13 02:07:50;;;;;;;7.85;1.13;;;;;;;;;;4938346;29;20035;-82
2021/04/13 02:10:24;;;;;;;3.95;1.17;;;;;;;;;;4924579;29;20051;-81
2021/04/13 02:12:50;;;;;;;3.20;0.93;;;;;;;;;;4923156;29;20047;-82
2021/04/13 02:15:17;;;;;;;6.88;1.08;;;;;;;;;;4922449;29;20046;-82
2021/04/13 02:17:53;;;;;;;7.68;1.02;;;;;;;;;;4955128;29;20054;-82
2021/04/13 02:20:20;;;;;;;2.25;0.70;;;;;;;;;;4955230;29;20057;-82
2021/04/13 02:22:47;;;;;;;6.50;1.05;;;;;;;;;;4922276;29;20043;-82
2021/04/13 02:25:14;;;;;;;7.35;1.25;;;;;;;;;;4922303;29;20082;-82
2021/04/13 02:27:41;;;;;;;4.85;0.90;;;;;;;;;;4938849;29;20058;-83
2021/04/13 02:30:08;;;;;;;3.63;0.90;;;;;;;;;;4953950;29;20110;-81
2021/04/13 02:32:34;;;;;;;5.88;1.35;;;;;;;;;;4953960;29;20035;-82
2021/04/13 02:35:05;;;;;;;4.55;0.90;;;;;;;;;;4938042;29;20039;-82
2021/04/13 02:37:35;;;;;;;6.72;1.20;;;;;;;;;;4953773;29;20078;-83
2021/04/13 02:40:07;;;;;;;7.25;1.00;;;;;;;;;;4953734;29;20039;-83
2021/04/13 02:42:38;;;;;;;7.32;1.20;;;;;;;;;;4953748;29;20047;-81
2021/04/13 02:45:05;;;;;;;2.10;0.88;;;;;;;;;;4953736;29;20126;-82
2021/04/13 02:47:31;;;;;;;12.10;1.67;;;;;;;;;;4937640;29;20542;-82
2021/04/13 02:49:58;;;;;;;3.72;0.93;;;;;;;;;;4937542;29;20047;-82
2021/04/13 02:52:26;;;;;;;5.63;1.00;;;;;;;;;;4937495;29;20039;-81
2021/04/13 02:54:59;;;;;;;3.90;1.10;;;;;;;;;;4954591;29;20349;-82
2021/04/13 02:57:33;;;;;;;2.00;0.73;;;;;;;;;;4953344;29;20046;-82
2021/04/13 03:00:01;;;;;;;4.60;0.95;;;;;;;;;;4937692;29;20446;-82
2021/04/13 03:02:27;;;;;;;4.20;1.20;;;;;;;;;;4953493;29;20491;-83
2021/04/13 03:04:53;;;;;;;4.28;1.10;;;;;;;;;;4953149;29;20076;-82
2021/04/13 03:07:21;;;;;;;4.28;1.10;;;;;;;;;;4953178;29;20043;-82
2021/04/13 03:09:47;;;;;;;6.25;1.00;;;;;;;;;;4953294;29;20050;-82
2021/04/13 03:12:13;;;;;;;3.97;1.30;;;;;;;;;;4953214;29;20067;-82
2021/04/13 03:14:46;;;;;;;7.20;0.90;;;;;;;;;;4953202;29;20442;-81
2021/04/13 03:17:14;;;;;;;4.80;1.10;;;;;;;;;;4954141;29;20043;-82
2021/04/13 03:19:40;;;;;;;7.70;1.35;;;;;;;;;;4937197;29;20051;-81
2021/04/13 03:22:07;;;;;;;6.35;1.05;;;;;;;;;;4953128;29;20039;-85
2021/04/13 03:24:34;;;;;;;8.00;1.50;;;;;;;;;;4937439;29;20094;-82
2021/04/13 03:27:01;;;;;;;5.28;1.00;;;;;;;;;;4937360;29;20118;-81
2021/04/13 03:29:35;;;;;;;4.43;1.10;;;;;;;;;;4953965;29;20486;-82
2021/04/13 03:32:01;;;;;;;4.95;1.00;;;;;;;;;;4937203;29;20062;-82
2021/04/13 03:34:27;;;;;;;6.32;0.88;;;;;;;;;;4937104;29;20376;-82
2021/04/13 03:36:54;;;;;;;9.23;1.30;;;;;;;;;;4937060;29;20390;-82
2021/04/13 03:39:25;;;;;;;5.95;0.82;;;;;;;;;;4937082;29;20051;-82
2021/04/13 03:41:51;;;;;;;5.50;1.20;;;;;;;;;;4937049;29;20035;-82
2021/04/13 03:44:19;;;;;;;5.20;2.15;;;;;;;;;;4937156;29;20491;-82
2021/04/13 03:46:45;;;;;;;9.00;1.52;;;;;;;;;;4921135;29;20047;-82
2021/04/13 03:49:15;;;;;;;6.38;1.00;;;;;;;;;;4921111;29;20102;-82
2021/04/13 03:51:42;;;;;;;8.45;1.02;;;;;;;;;;4936923;29;20047;-83
2021/04/13 03:54:31;;;;;;;6.55;1.73;;;;;;;;;;4936982;29;20066;-82
2021/04/13 03:56:59;;;;;;;4.88;1.10;;;;;;;;;;4941478;29;20052;-82
2021/04/13 03:59:26;;;;;;;7.78;1.13;;;;;;;;;;4921240;28;20074;-82
2021/04/13 04:01:52;;;;;;;5.75;1.13;;;;;;;;;;4939526;29;20039;-81
2021/04/13 04:04:33;;;;;;;4.35;1.20;;;;;;;;;;4940787;29;20050;-81
2021/04/13 04:07:05;;;;;;;4.50;1.27;;;;;;;;;;4940609;29;20063;-82
2021/04/13 04:09:31;;;;;;;7.53;1.50;;;;;;;;;;4941243;29;20044;-82
2021/04/13 04:11:59;;;;;;;6.47;1.20;;;;;;;;;;4957507;29;20071;-82
2021/04/13 04:14:25;;;;;;;4.85;1.23;;;;;;;;;;4940521;29;20045;-81
2021/04/13 04:16:51;;;;;;;5.35;0.88;;;;;;;;;;4940354;29;20035;-83
2021/04/13 04:19:22;;;;;;;3.10;1.05;;;;;;;;;;4924523;29;20494;-84
2021/04/13 04:21:57;;;;;;;5.78;1.00;;;;;;;;;;4924690;29;20130;-82
2021/04/13 04:24:30;;;;;;;10.45;2.22;;;;;;;;;;4940248;29;20051;-84
2021/04/13 04:26:57;;;;;;;5.32;1.52;;;;;;;;;;4957244;29;20077;-84
2021/04/13 04:29:29;;;;;;;3.85;0.95;;;;;;;;;;4954638;28;20059;-84
2021/04/13 04:31:55;;;;;;;4.30;0.95;;;;;;;;;;4957256;29;20057;-83
2021/04/13 04:34:21;;;;;;;6.25;1.08;;;;;;;;;;4957135;29;20093;-82
2021/04/13 04:36:47;;;;;;;7.70;1.38;;;;;;;;;;4956903;29;20043;-83
2021/04/13 04:39:31;;;;;;;3.45;1.38;;;;;;;;;;4955918;29;20111;-82
2021/04/13 04:41:59;;;;;;;;;;;;;;;;;;4957487;28;20542;-83
2021/04/13 04:44:27;;;;;;;5.50;0.90;;;;;;;;;;4957002;28;19923;-83
2021/04/13 04:46:58;;;;;;;3.30;0.88;;;;;;;;;;4955617;29;20042;-82
2021/04/13 04:49:24;;;;;;;3.33;0.90;;;;;;;;;;4955733;29;20066;-82
2021/04/13 04:51:51;;;;;;;6.13;1.30;;;;;;;;;;4955643;29;20047;-83
2021/04/13 04:54:17;;;;;;;5.60;1.20;;;;;;;;;;4956748;29;20121;-83
2021/04/13 04:56:43;;;;;;;6.40;1.13;;;;;;;;;;4939738;29;20067;-83
2021/04/13 04:59:09;;;;;;;5.72;1.20;;;;;;;;;;4956796;29;20050;-82
2021/04/13 05:01:35;;;;;;;15.75;2.00;;;;;;;;;;4955566;29;20095;-83
2021/04/13 05:04:01;;;;;;;5.55;1.10;;;;;;;;;;4956609;29;20036;-83
2021/04/13 05:06:27;;;;;;;9.05;1.73;;;;;;;;;;4955316;29;20031;-83
2021/04/13 05:08:56;;;;;;;8.27;1.55;;;;;;;;;;4939531;29;20040;-83
2021/04/13 05:11:22;;;;;;;7.47;1.13;;;;;;;;;;4954799;28;20043;-82
2021/04/13 05:13:48;;;;;;;10.80;1.30;;;;;;;;;;4939429;29;20046;-83
2021/04/13 05:16:14;;;;;;;8.43;2.10;;;;;;;;;;4955231;29;20043;-82
2021/04/13 05:18:40;;;;;;;7.07;1.65;;;;;;;;;;4956466;29;20070;-83
2021/04/13 05:21:07;;;;;;;10.02;1.50;;;;;;;;;;4956443;29;20039;-82
2021/04/13 05:23:33;;;;;;;4.65;1.08;;;;;;;;;;4955139;29;20078;-82
2021/04/13 05:25:59;;;;;;;13.10;2.22;;;;;;;;;;4956169;29;20043;-82
2021/04/13 05:28:25;;;;;;;7.88;1.48;;;;;;;;;;4955910;29;20407;-82
2021/04/13 05:30:51;;;;;;;10.02;1.20;;;;;;;;;;4955976;29;20039;-83
2021/04/13 05:33:20;;;;;;;9.18;1.77;;;;;;;;;;4939112;29;20053;-83
2021/04/13 05:35:46;;;;;;;6.40;1.50;;;;;;;;;;4938939;29;20043;-83
2021/04/13 05:38:20;;;;;;;7.43;1.23;;;;;;;;;;4938949;29;20122;-83
2021/04/13 05:40:46;;;;;;;7.38;1.48;;;;;;;;;;4923034;29;20133;-83
2021/04/13 05:43:13;;;;;;;10.25;1.75;;;;;;;;;;4938920;29;20102;-82
2021/04/13 05:45:42;;;;;;;8.40;1.08;;;;;;;;;;4939247;29;20047;-82
2021/04/13 05:48:08;;;;;;;5.22;1.30;;;;;;;;;;4938801;29;20040;-83
2021/04/13 05:50:36;;;;;;;7.82;1.17;;;;;;;;;;4938861;29;20062;-83
2021/04/13 05:53:02;;;;;;;8.88;1.55;;;;;;;;;;4955700;29;20065;-83
2021/04/13 05:55:30;;;;;;;8.40;1.20;;;;;;;;;;4922837;29;20487;-84
2021/04/13 05:57:58;;;;;;;5.15;1.38;;;;;;;;;;4922696;29;20179;-83
2021/04/13 06:00:25;;;;;;;18.70;1.60;;;;;;;;;;4938589;29;20070;-83
2021/04/13 06:02:51;;;;;;;7.97;1.63;;;;;;;;;;4938628;29;20035;-84
2021/04/13 06:05:17;;;;;;;6.28;1.30;;;;;;;;;;4938490;29;20051;-83
2021/04/13 06:07:43;;;;;;;5.00;1.27;;;;;;;;;;4922477;29;20131;-83
2021/04/13 06:10:09;;;;;;;7.00;1.17;;;;;;;;;;4938367;29;20066;-84
2021/04/13 06:12:35;;;;;;;4.50;0.98;;;;;;;;;;4922513;29;20043;-83
2021/04/13 06:15:01;;;;;;;10.10;1.50;;;;;;;;;;4938645;29;20509;-83
2021/04/13 06:17:27;;;;;;;5.38;1.00;;;;;;;;;;4955411;29;20046;-82
2021/04/13 06:19:53;;;;;;;8.00;1.15;;;;;;;;;;4922332;29;20047;-83
2021/04/13 06:22:19;;;;;;;10.32;1.45;;;;;;;;;;4938074;29;20494;-83
2021/04/13 06:24:45;;;;;;;7.57;1.35;;;;;;;;;;4954240;28;20074;-81
2021/04/13 06:27:11;;;;;;;6.72;1.30;;;;;;;;;;4937993;29;20529;-83
2021/04/13 06:29:38;;;;;;;4.00;1.30;;;;;;;;;;4955132;29;20546;-83
2021/04/13 06:32:08;;;;;;;6.05;1.20;;;;;;;;;;4955034;29;20046;-86
2021/04/13 06:34:34;;;;;;;4.40;1.45;;;;;;;;;;4937969;29;20278;-86
2021/04/13 06:37:04;;;;;;;6.53;1.63;;;;;;;;;;4922512;29;20043;-85
2021/04/13 06:39:31;;;;;;;6.75;1.10;;;;;;;;;;4955815;29;20047;-86
2021/04/13 06:42:05;;;;;;;5.93;1.20;;;;;;;;;;4938473;29;20035;-86
2021/04/13 06:44:42;;;;;;;5.28;1.45;;;;;;;;;;4922016;29;20130;-88
2021/04/13 06:47:19;;;;;;;9.23;1.83;;;;;;;;;;4938118;29;20047;-84
2021/04/13 06:50:04;;;;;;;6.88;1.25;;;;;;;;;;4937812;29;20075;-84
2021/04/13 06:52:54;;;;;;;6.75;1.30;;;;;;;;;;4954699;29;20399;-83
2021/04/13 06:55:20;;;;;;;6.93;1.23;;;;;;;;;;4910630;29;20091;-84
2021/04/13 06:58:21;;;;;;;7.00;1.60;;;;;;;;;;4954659;29;20039;-85
2021/04/13 07:00:56;;;;;;;8.15;1.10;;;;;;;;;;4842978;29;20060;-86
2021/04/13 07:03:32;;;;;;;8.27;1.33;;;;;;;;;;4926792;29;20055;-83
2021/04/13 07:05:59;;;;;;;6.65;1.83;;;;;;;;;;4921951;29;20101;-84
2021/04/13 07:08:39;;;;;;;4.68;1.55;;;;;;;;;;4937427;29;20093;-83
2021/04/13 07:11:09;;;;;;;6.63;1.17;;;;;;;;;;4937382;29;20162;-84
2021/04/13 07:13:50;;;;;;;4.68;1.60;;;;;;;;;;4937396;29;20093;-85
2021/04/13 07:16:18;;;;;;;5.63;1.27;;;;;;;;;;4937516;29;20031;-85
2021/04/13 07:18:48;;;;;;;9.27;1.50;;;;;;;;;;4921659;29;20043;-84
2021/04/13 07:21:25;;;;;;;5.80;1.20;;;;;;;;;;4937433;29;20035;-85
2021/04/13 07:23:53;;;;;;;6.38;1.30;;;;;;;;;;4937387;29;20043;-86
2021/04/13 07:26:25;;;;;;;3.70;0.73;;;;;;;;;;4921384;29;20038;-89
2021/04/13 07:28:56;;;;;;;3.92;1.30;;;;;;;;;;4954160;29;20130;-87
2021/04/13 07:31:27;;;;;;;9.38;1.33;;;;;;;;;;4921600;29;20047;-88
2021/04/13 07:33:53;;;;;;;5.10;1.10;;;;;;;;;;4937449;29;20031;-92
2021/04/13 07:36:42;;;;;;;9.30;1.85;;;;;;;;;;4921545;29;20105;-88
2021/04/13 07:39:08;;;;;;;3.10;1.10;;;;;;;;;;4925751;29;20062;-88
2021/04/13 07:41:48;;;;;;;7.35;1.08;;;;;;;;;;4921586;29;20097;-87
2021/04/13 07:44:22;;;;;;;7.43;1.17;;;;;;;;;;4952353;28;20039;-88
2021/04/13 07:46:51;;;;;;;6.00;1.27;;;;;;;;;;4959732;28;20043;-85
2021/04/13 07:49:28;;;;;;;7.13;1.10;;;;;;;;;;4952806;28;20106;-86
2021/04/13 07:52:00;;;;;;;4.80;1.40;;;;;;;;;;4924514;28;20399;-86
2021/04/13 07:54:44;;;;;;;3.20;1.00;;;;;;;;;;4973088;28;20070;-88
2021/04/13 07:57:22;;;;;;;5.72;1.13;;;;;;;;;;4973124;28;20046;-85
2021/04/13 08:00:00;;;;;;;6.32;1.15;;;;;;;;;;4956076;28;20042;-87
2021/04/13 08:02:26;;;;;;;6.25;1.13;;;;;;;;;;4973196;28;20118;-88
2021/04/13 08:04:52;;;;;;;6.57;1.20;;;;;;;;;;4955936;28;20039;-85
2021/04/13 08:07:20;;;;;;;4.47;1.02;;;;;;;;;;4955905;28;20047;-89
2021/04/13 08:10:06;;;;;;;6.72;1.13;;;;;;;;;;4939903;28;20046;-88
2021/04/13 08:12:33;;;;;;;6.90;1.30;;;;;;;;;;4972845;28;20410;-88
2021/04/13 08:15:02;;;;;;;4.40;1.10;;;;;;;;;;4955993;28;20122;-87
2021/04/13 08:17:29;;;;;;;8.18;1.20;;;;;;;;;;4955685;28;20125;-87
2021/04/13 08:20:03;;;;;;;8.23;1.30;;;;;;;;;;4955700;28;20043;-85
2021/04/13 08:22:29;;;;;;;4.55;1.08;;;;;;;;;;4972767;28;20039;-85
2021/04/13 08:24:58;;;;;;;6.75;1.50;;;;;;;;;;4972759;28;20419;-86
2021/04/13 08:27:27;;;;;;;4.55;1.30;;;;;;;;;;4955330;28;20497;-83
2021/04/13 08:30:02;;;;;;;5.10;1.75;;;;;;;;;;4972548;28;20051;-84
2021/04/13 08:32:50;;;;;;;6.03;0.90;;;;;;;;;;4972749;28;20035;-84
2021/04/13 08:35:25;;;;;;;4.35;0.80;;;;;;;;;;4961434;28;20051;-85
2021/04/13 08:37:58;;;;;;;2.25;0.80;;;;;;;;;;4936771;29;20043;-84
2021/04/13 08:40:33;;;;;;;5.25;1.10;;;;;;;;;;4964560;28;20110;-85
2021/04/13 08:43:10;;;;;;;6.13;0.80;;;;;;;;;;4955464;28;20479;-84
2021/04/13 08:45:49;;;;;;;11.18;1.25;;;;;;;;;;4955389;28;20038;-83
2021/04/13 08:48:31;;;;;;;10.38;0.82;;;;;;;;;;4942915;28;20433;-82
2021/04/13 08:51:11;;;;;;;4.22;0.98;;;;;;;;;;4943173;28;20039;-83
2021/04/13 08:53:42;;;;;;;3.85;0.80;;;;;;;;;;4958925;28;20046;-83
2021/04/13 08:56:12;;;;;;;6.22;1.10;;;;;;;;;;4959420;28;20070;-83
2021/04/13 08:58:40;;;;;;;8.10;1.00;;;;;;;;;;4958921;28;20575;-84
2021/04/13 09:01:25;;;;;;;6.35;1.10;;;;;;;;;;4958783;28;20109;-84
2021/04/13 09:03:51;;;;;;;4.65;0.93;;;;;;;;;;4976064;28;20049;-85
2021/04/13 09:06:17;;;;;;;2.60;0.90;;;;;;;;;;4958266;28;20041;-88
2021/04/13 09:08:51;;;;;;;3.88;0.65;;;;;;;;;;4958573;28;20050;-88
2021/04/13 09:11:30;;;;;;;3.70;1.00;;;;;;;;;;4939214;29;20043;-87
2021/04/13 09:14:07;;;;;;;3.75;0.85;;;;;;;;;;4956396;29;20043;-86
2021/04/13 09:16:36;;;;;;;4.00;0.90;;;;;;;;;;4939174;29;20483;-87
2021/04/13 09:19:04;;;;;;;3.35;0.68;;;;;;;;;;4923282;29;20047;-86
2021/04/13 09:21:35;;;;;;;3.28;0.80;;;;;;;;;;4956744;29;20047;-83
2021/04/13 09:24:01;;;;;;;6.32;1.00;;;;;;;;;;4956169;29;20039;-83
2021/04/13 09:26:27;;;;;;;5.05;1.27;;;;;;;;;;4956079;29;20126;-81
2021/04/13 09:28:57;;;;;;;5.93;0.80;;;;;;;;;;4956072;29;20126;-83
2021/04/13 09:31:29;;;;;;;7.28;1.05;;;;;;;;;;4954862;28;20117;-85
2021/04/13 09:34:08;;;;;;;5.90;1.10;;;;;;;;;;4954926;29;20036;-83
2021/04/13 09:36:54;;;;;;;4.15;0.73;;;;;;;;;;4945882;28;20041;-84
2021/04/13 09:39:36;;;;;;;4.88;0.80;;;;;;;;;;4936186;28;20046;-84
2021/04/13 09:42:17;;;;;;;7.15;0.82;;;;;;;;;;4958194;28;20371;-84
2021/04/13 09:45:01;;;;;;;2.17;0.73;;;;;;;;;;4975373;28;20471;-84
2021/04/13 09:47:31;;;;;;;2.03;0.65;;;;;;;;;;4957889;28;20125;-83
2021/04/13 09:50:03;;;;;;;1.60;0.60;;;;;;;;;;4975318;28;20113;-82
2021/04/13 09:52:37;;;;;;;3.00;0.70;;;;;;;;;;4942302;28;20054;-84
2021/04/13 09:55:03;;;;;;;2.17;0.70;;;;;;;;;;4957923;28;20102;-85
2021/04/13 09:57:41;;;;;;;3.55;0.90;;;;;;;;;;4974840;28;20121;-85
2021/04/13 10:00:07;;;;;;;5.55;1.00;;;;;;;;;;4957966;28;20057;-84
2021/04/13 10:02:52;;;;;;;6.80;0.93;;;;;;;;;;4974924;28;20049;-85
2021/04/13 10:05:18;;;;;;;5.88;1.23;;;;;;;;;;4964248;28;20408;-85
2021/04/13 10:07:50;;;;;;;7.13;0.85;;;;;;;;;;4938082;29;20394;-85
2021/04/13 10:10:19;;;;;;;3.83;0.80;;;;;;;;;;4942323;29;20047;-84
2021/04/13 10:13:04;;;;;;;6.90;1.27;;;;;;;;;;4938415;29;20406;-85
2021/04/13 10:15:35;;;;;;;6.85;1.02;;;;;;;;;;4937182;29;20055;-86
2021/04/13 10:18:20;;;;;;;3.90;0.70;;;;;;;;;;4956585;29;20043;-83
2021/04/13 10:20:52;;;;;;;4.80;0.70;;;;;;;;;;4955181;29;20043;-82
2021/04/13 10:23:25;;;;;;;5.63;1.00;;;;;;;;;;4955110;28;20044;-83
2021/04/13 10:26:02;;;;;;;3.08;0.77;;;;;;;;;;4953930;28;20031;-81
2021/04/13 10:28:52;;;;;;;5.03;0.80;;;;;;;;;;4961156;28;20059;-82
2021/04/13 10:31:39;;;;;;;6.70;0.80;;;;;;;;;;4953953;29;20039;-81
2021/04/13 10:34:11;;;;;;;3.40;0.75;;;;;;;;;;4954774;28;20040;-83
2021/04/13 10:36:41;;;;;;;4.33;0.70;;;;;;;;;;4969716;28;20045;-83
2021/04/13 10:39:23;;;;;;;4.43;0.65;;;;;;;;;;4969484;28;20047;-84
2021/04/13 10:41:55;;;;;;;2.90;0.77;;;;;;;;;;4953691;29;20059;-84
2021/04/13 10:44:40;;;;;;;4.15;0.85;;;;;;;;;;4955132;29;20043;-85
2021/04/13 10:47:12;;;;;;;7.97;0.80;;;;;;;;;;4953495;29;20039;-85
2021/04/13 10:49:57;;;;;;;2.47;0.75;;;;;;;;;;4954519;29;20075;-84
2021/04/13 10:53:02;;;;;;;4.53;1.10;;;;;;;;;;4940268;29;20046;-84
2021/04/13 10:55:53;;;;;;;3.58;0.70;;;;;;;;;;4954622;29;20304;-84
2021/04/13 10:58:38;;;;;;;5.75;0.82;;;;;;;;;;4951701;28;20118;-82
2021/04/13 11:01:10;;;;;;;4.80;0.88;;;;;;;;;;4953456;29;20193;-84
2021/04/13 11:03:55;;;;;;;6.43;0.80;;;;;;;;;;4954524;29;20426;-83
2021/04/13 11:06:40;;;;;;;3.70;0.93;;;;;;;;;;4952952;28;20043;-84
2021/04/13 11:09:30;;;;;;;1.83;0.57;;;;;;;;;;4953876;28;20039;-84
2021/04/13 11:12:14;;;;;;;2.20;0.60;;;;;;;;;;4969382;28;20043;-84
2021/04/13 11:14:49;;;;;;;5.45;0.95;;;;;;;;;;4952908;29;20087;-84
2021/04/13 11:17:28;;;;;;;3.40;0.70;;;;;;;;;;4954198;29;20127;-83
2021/04/13 11:20:13;;;;;;;2.75;0.80;;;;;;;;;;4952745;29;20114;-84
2021/04/13 11:22:52;;;;;;;2.63;0.70;;;;;;;;;;4968932;28;20063;-83
2021/04/13 11:25:36;;;;;;;3.65;0.70;;;;;;;;;;4954125;29;20510;-85
2021/04/13 11:28:21;;;;;;;5.50;1.20;;;;;;;;;;4953845;28;20059;-83
2021/04/13 11:30:56;;;;;;;3.00;0.60;;;;;;;;;;4920981;29;20043;-82
2021/04/13 11:33:43;;;;;;;2.40;0.70;;;;;;;;;;4936770;29;20475;-83
2021/04/13 11:36:32;;;;;;;4.35;0.95;;;;;;;;;;4947031;29;20122;-85
2021/04/13 11:39:00;;;;;;;4.10;0.70;;;;;;;;;;4954043;29;20492;-84
2021/04/13 11:41:45;;;;;;;4.10;0.60;;;;;;;;;;4952986;29;20043;-83
2021/04/13 11:44:22;;;;;;;1.77;0.45;;;;;;;;;;4937702;29;20078;-85
2021/04/13 11:46:48;;;;;;;2.03;0.50;;;;;;;;;;4954974;28;20052;-83
2021/04/13 11:49:14;;;;;;;3.53;0.80;;;;;;;;;;4953837;29;20043;-85
2021/04/13 11:51:43;;;;;;;4.28;0.68;;;;;;;;;;4953913;29;20513;-84
2021/04/13 11:54:28;;;;;;;1.95;0.68;;;;;;;;;;4952667;29;20114;-88
2021/04/13 11:57:04;;;;;;;1.73;0.60;;;;;;;;;;4936619;29;20110;-82
2021/04/13 11:59:30;;;;;;;3.03;0.60;;;;;;;;;;4953819;29;20098;-82
2021/04/13 12:01:58;;;;;;;1.90;0.60;;;;;;;;;;4952790;28;20039;-82
2021/04/13 12:04:41;;;;;;;2.65;0.70;;;;;;;;;;4935963;29;20035;-84
2021/04/13 12:07:09;;;;;;;2.47;0.60;;;;;;;;;;4951380;29;20039;-83
2021/04/13 12:09:39;;;;;;;3.97;0.82;;;;;;;;;;4952410;29;20039;-82
2021/04/13 12:12:28;;;;;;;1.08;0.60;;;;;;;;;;4952602;29;20107;-82
2021/04/13 12:14:54;;;;;;;4.97;1.27;;;;;;;;;;4953366;29;20039;-82
2021/04/13 12:17:34;;;;;;;1.38;0.50;;;;;;;;;;4936098;29;20143;-82
2021/04/13 12:20:19;;;;;;;1.88;0.65;;;;;;;;;;4936758;29;20538;-82
2021/04/13 12:22:45;;;;;;;2.05;0.55;;;;;;;;;;4956438;29;20063;-81
2021/04/13 12:25:30;;;;;;;2.88;0.70;;;;;;;;;;4956065;29;20039;-81
2021/04/13 12:28:16;;;;;;;1.77;0.50;;;;;;;;;;4957117;29;20055;-82
2021/04/13 12:30:42;;;;;;;2.33;0.50;;;;;;;;;;4940114;29;20049;-82
2021/04/13 12:33:08;;;;;;;2.67;0.70;;;;;;;;;;4957274;29;20035;-81
2021/04/13 12:35:47;;;;;;;3.70;0.60;;;;;;;;;;4956029;29;20035;-81
2021/04/13 12:38:31;;;;;;;2.05;0.60;;;;;;;;;;4957062;29;20047;-81
2021/04/13 12:41:12;;;;;;;3.72;0.70;;;;;;;;;;4957159;29;20039;-81
2021/04/13 12:43:59;;;;;;;3.35;0.63;;;;;;;;;;4956621;29;20043;-81
2021/04/13 12:46:34;;;;;;;3.38;0.60;;;;;;;;;;4956815;29;20047;-81
2021/04/13 12:49:02;;;;;;;2.10;0.50;;;;;;;;;;4956955;29;20047;-81
2021/04/13 12:51:32;;;;;;;1.40;0.45;;;;;;;;;;4940119;29;20430;-81
2021/04/13 12:54:07;;;;;;;0.73;0.40;;;;;;;;;;4955837;29;20038;-82
2021/04/13 12:56:33;;;;;;;2.30;0.60;;;;;;;;;;4956541;29;20093;-82
2021/04/13 12:59:11;;;;;;;2.60;0.52;;;;;;;;;;4956633;29;20266;-84
2021/04/13 13:01:38;;;;;;;2.67;0.65;;;;;;;;;;4939673;29;20118;-85
2021/04/13 13:04:25;;;;;;;2.67;0.75;;;;;;;;;;4939338;29;20035;-86
2021/04/13 13:06:57;;;;;;;1.52;0.47;;;;;;;;;;4956135;29;20050;-89
2021/04/13 13:09:29;;;;;;;1.45;0.55;;;;;;;;;;4939347;29;20048;-87
2021/04/13 13:11:59;;;;;;;3.22;0.60;;;;;;;;;;4956349;29;20155;-85
2021/04/13 13:14:46;;;;;;;2.42;0.50;;;;;;;;;;4955011;29;20614;-86
2021/04/13 13:17:16;;;;;;;2.55;0.50;;;;;;;;;;4955011;29;20058;-86
2021/04/13 13:19:42;;;;;;;1.80;0.43;;;;;;;;;;4954989;29;20039;-87
2021/04/13 13:22:18;;;;;;;2.97;0.57;;;;;;;;;;4956565;29;20194;-86
2021/04/13 13:24:47;;;;;;;0.88;0.47;;;;;;;;;;4955010;29;20106;-86
2021/04/13 13:27:17;;;;;;;2.60;0.57;;;;;;;;;;4938583;29;20043;-87
2021/04/13 13:29:44;;;;;;;1.75;0.52;;;;;;;;;;4938760;29;20051;-86
2021/04/13 13:32:11;;;;;;;4.28;1.23;;;;;;;;;;4954370;28;20043;-85
2021/04/13 13:34:37;;;;;;;2.45;0.60;;;;;;;;;;4954769;29;20098;-85
2021/04/13 13:37:04;;;;;;;0.90;0.52;;;;;;;;;;4954861;29;20043;-85
2021/04/13 13:39:51;;;;;;;1.27;0.50;;;;;;;;;;4928464;29;20110;-87
2021/04/13 13:42:17;;;;;;;5.10;0.75;;;;;;;;;;4954281;29;20107;-85
2021/04/13 13:44:47;;;;;;;3.20;0.70;;;;;;;;;;4954408;29;20218;-85
2021/04/13 13:47:13;;;;;;;1.75;0.80;;;;;;;;;;4938349;29;20475;-85
2021/04/13 13:49:41;;;;;;;3.03;0.75;;;;;;;;;;4938383;29;20050;-84
2021/04/13 13:52:14;;;;;;;1.35;0.50;;;;;;;;;;4938819;29;20039;-83
2021/04/13 13:54:40;;;;;;;2.38;0.60;;;;;;;;;;4954426;29;20503;-83
2021/04/13 13:57:32;;;;;;;1.58;0.52;;;;;;;;;;4955163;29;20045;-83
2021/04/13 13:59:58;;;;;;;2.42;0.50;;;;;;;;;;4954709;29;20047;-83
2021/04/13 14:02:28;;;;;;;3.95;0.68;;;;;;;;;;4954069;29;20372;-84
2021/04/13 14:04:57;;;;;;;3.58;0.60;;;;;;;;;;4938240;29;20074;-84
2021/04/13 14:07:34;;;;;;;1.73;0.60;;;;;;;;;;4937867;29;20126;-84
2021/04/13 14:10:13;;;;;;;2.90;0.63;;;;;;;;;;4937804;28;20254;-84
2021/04/13 14:12:40;;;;;;;2.40;0.70;;;;;;;;;;4971701;28;20070;-84
2021/04/13 14:15:23;;;;;;;1.63;0.47;;;;;;;;;;4941313;28;20038;-84
2021/04/13 14:18:06;;;;;;;1.65;0.50;;;;;;;;;;4957265;28;20470;-84
2021/04/13 14:20:32;;;;;;;4.25;0.60;;;;;;;;;;4941524;28;20045;-84
2021/04/13 14:23:08;;;;;;;4.43;0.50;;;;;;;;;;4957377;28;20338;-85
2021/04/13 14:25:35;;;;;;;5.22;0.75;;;;;;;;;;4974304;28;20050;-84
2021/04/13 14:28:09;;;;;;;3.95;0.60;;;;;;;;;;4944952;28;20057;-83
2021/04/13 14:30:35;;;;;;;2.45;0.57;;;;;;;;;;4973345;28;20097;-83
2021/04/13 14:33:01;;;;;;;3.92;0.70;;;;;;;;;;4957276;28;20589;-83
2021/04/13 14:35:27;;;;;;;3.10;0.70;;;;;;;;;;4974274;28;20121;-83
2021/04/13 14:37:53;;;;;;;3.50;0.60;;;;;;;;;;4972996;28;20069;-84
2021/04/13 14:40:20;;;;;;;4.07;0.60;;;;;;;;;;4972805;28;20038;-84
2021/04/13 14:42:47;;;;;;;5.15;0.68;;;;;;;;;;4972980;28;20046;-84
2021/04/13 14:45:16;;;;;;;2.78;0.50;;;;;;;;;;4972286;28;20085;-85
2021/04/13 14:47:42;;;;;;;4.88;0.68;;;;;;;;;;4956803;28;20098;-83
2021/04/13 14:50:13;;;;;;;2.20;0.50;;;;;;;;;;4972948;28;20082;-84
2021/04/13 14:52:41;;;;;;;3.53;1.20;;;;;;;;;;4973076;28;20117;-85
2021/04/13 14:55:07;;;;;;;3.53;0.63;;;;;;;;;;4956853;28;20101;-85
2021/04/13 14:57:33;;;;;;;3.00;0.60;;;;;;;;;;4972864;28;20057;-84
2021/04/13 15:00:01;;;;;;;3.63;0.70;;;;;;;;;;4972781;28;20038;-84
2021/04/13 15:02:27;;;;;;;4.43;0.63;;;;;;;;;;4955233;28;20035;-85
2021/04/13 15:04:53;;;;;;;1.85;0.60;;;;;;;;;;4972012;28;20035;-83
2021/04/13 15:07:19;;;;;;;2.58;0.70;;;;;;;;;;4969107;28;20038;-84
2021/04/13 15:09:45;;;;;;;1.92;0.40;;;;;;;;;;4973630;28;20042;-83